K0S9 Airport Information

Runway Information
Runway 09 Length 3000 ft width 75 ft
Elevation 0 ft Threshold 0 ft Heading 104
Runway 27 Length 3000 ft Width 75 ft
Elevation 0 ft Threshold 850 ft Heading 337
Airport Frequencies
Type UNIC Name CTAF/UNICO Frequency 123 MHZ
Airport Navaids
Airport Weather Information & NOTAM
ADDS - METARS form results

(0619 UTC 19 August 2018)
 
METAR text: K0S9 190615Z AUTO 00000KT 10SM BKN046 OVC055 12/12 A3011 RMK AO2
Conditions at: K0S9 (PORT TOWNSEND , WA, US) observed 0615 UTC 19 August 2018
Temperature: 12.0°C (54°F)
Dewpoint: 12.0°C (54°F) [RH = 100%]
Pressure (altimeter): 30.11 inches Hg (1019.7 mb)
Winds: calm
Visibility: 10 or more miles (16+ km)
Ceiling: 4600 feet AGL
Clouds: broken clouds at 4600 feet AGL
overcast cloud deck at 5500 feet AGL
Weather: automated observation with no human augmentation;
there may or may not be significant weather present at this time

METAR text: K0S9 190555Z AUTO 00000KT 10SM BKN046 OVC055 13/12 A3011 RMK AO2
Conditions at: K0S9 (PORT TOWNSEND , WA, US) observed 0555 UTC 19 August 2018
Temperature: 13.0°C (55°F)
Dewpoint: 12.0°C (54°F) [RH = 94%]
Pressure (altimeter): 30.11 inches Hg (1019.7 mb)
Winds: calm
Visibility: 10 or more miles (16+ km)
Ceiling: 4600 feet AGL
Clouds: broken clouds at 4600 feet AGL
overcast cloud deck at 5500 feet AGL
Weather: automated observation with no human augmentation;
there may or may not be significant weather present at this time

METAR text: K0S9 190535Z AUTO 00000KT 10SM FEW035 OVC044 12/11 A3011 RMK AO2
Conditions at: K0S9 (PORT TOWNSEND , WA, US) observed 0535 UTC 19 August 2018
Temperature: 12.0°C (54°F)
Dewpoint: 11.0°C (52°F) [RH = 94%]
Pressure (altimeter): 30.11 inches Hg (1019.7 mb)
Winds: calm
Visibility: 10 or more miles (16+ km)
Ceiling: 4400 feet AGL
Clouds: few clouds at 3500 feet AGL
overcast cloud deck at 4400 feet AGL
Weather: automated observation with no human augmentation;
there may or may not be significant weather present at this time